OIIP

Details ICAO OIIP
Name PAYAM
Region Iran
Timezone Asia/Tehran (UTC+3.5)
Plans Departing 10
Arriving 4
Stats Elevation 4,170 ft / 1,271 m (AMSL)
Location 35.775968° 50.826885°
Runways 1
Magnetic Variation 4.784° E
Sunrise 2017-12-16 03:41:20 UTC / 2017-12-16 07:11:20 Local
Sunset 2017-12-16 13:25:57 UTC / 2017-12-16 16:55:57 Local
Advertisement - Login to hide

Runways

ID Width Length Bearing (true) Bearing (mag) Surface Threshold Offset Overrun Length
12 197 ft / 60 m 12,014 ft / 3,662 m 128.09° 123.31° Asphalt 0 ft / 0 m 492 ft / 150 m
30 197 ft / 60 m 12,014 ft / 3,662 m 308.11° 303.33° Asphalt 0 ft / 0 m 345 ft / 105 m

Map

Weather


0- 5 10 15 20 25 30 35+ Temperature / ° C

Clouds and Precipitation
Forecast for 2017-12-16 06:00 UTC. Updated 2 minutes ago

Ground ~20,000 ft ~40,000 ft Winds

METAR

OIIP 160500Z 32006KT 5000 NSC M02/M06 Q1022

TAF

Not found

Frequencies

Tower 121.65 MHz INFO
Tower 118.40 MHz INFO
Warning: Do not use this data for real-world aviation or navigation. No guarantee of current accuracy is given.